createdAt,value
2023-12-17T00:01:36.301Z,12.05
2023-12-17T00:06:41.676Z,10.98
2023-12-17T00:11:45.299Z,10.52
2023-12-17T00:16:50.155Z,11.00
2023-12-17T00:21:53.656Z,14.60
2023-12-17T00:26:58.653Z,14.25
2023-12-17T00:32:03.712Z,13.80
2023-12-17T00:37:07.233Z,11.25
2023-12-17T00:42:11.982Z,9.60
2023-12-17T00:47:17.020Z,9.57
2023-12-17T00:52:21.506Z,9.50
2023-12-17T00:57:25.097Z,10.23
2023-12-17T01:02:30.125Z,10.23
2023-12-17T01:07:33.695Z,11.77
2023-12-17T01:12:37.281Z,11.40
2023-12-17T01:17:42.458Z,10.75
2023-12-17T01:22:46.200Z,10.70
2023-12-17T01:27:49.735Z,10.45
2023-12-17T01:32:55.344Z,8.25
2023-12-17T01:37:58.981Z,9.43
2023-12-17T01:43:04.641Z,8.38
2023-12-17T01:48:09.842Z,9.95
2023-12-17T01:53:14.674Z,9.65
2023-12-17T01:58:19.352Z,8.75
2023-12-17T02:03:24.291Z,8.77
2023-12-17T02:08:27.879Z,8.27
2023-12-17T02:13:31.503Z,8.00
2023-12-17T02:18:36.484Z,7.57
2023-12-17T02:23:41.524Z,9.23
2023-12-17T02:28:45.082Z,8.85
2023-12-17T02:33:48.757Z,10.38
2023-12-17T02:38:53.774Z,11.80
2023-12-17T02:43:57.322Z,13.38
2023-12-17T02:49:00.987Z,13.02
2023-12-17T02:54:06.000Z,12.70
2023-12-17T02:59:09.914Z,11.98
2023-12-17T03:04:14.014Z,12.13
2023-12-17T03:09:18.947Z,10.43
2023-12-17T03:14:22.498Z,10.02
2023-12-17T03:19:26.439Z,10.25
2023-12-17T03:24:31.333Z,10.13
2023-12-17T03:29:34.859Z,8.13
2023-12-17T03:34:38.527Z,8.48
2023-12-17T03:39:43.504Z,7.97
2023-12-17T03:44:47.595Z,8.27
2023-12-17T03:49:51.174Z,9.68
2023-12-17T03:54:56.234Z,9.45
2023-12-17T03:59:59.921Z,8.85
2023-12-17T04:05:03.472Z,7.28
2023-12-17T04:10:09.503Z,8.52
2023-12-17T04:15:13.075Z,9.90
2023-12-17T04:20:16.724Z,10.43
2023-12-17T04:25:21.586Z,10.88
2023-12-17T04:30:25.145Z,11.57
2023-12-17T04:35:28.786Z,10.55
2023-12-17T04:40:33.683Z,8.93
2023-12-17T04:45:37.552Z,8.75
2023-12-17T04:50:41.011Z,11.00
2023-12-17T04:55:45.890Z,12.52
2023-12-17T05:00:49.638Z,14.77
2023-12-17T05:05:53.294Z,13.98
2023-12-17T05:10:58.233Z,15.00
2023-12-17T05:16:01.814Z,16.40
2023-12-17T05:21:07.292Z,16.60
2023-12-17T05:26:12.266Z,17.13
2023-12-17T05:31:15.801Z,18.67
2023-12-17T05:36:19.318Z,20.88
2023-12-17T05:41:25.359Z,21.17
2023-12-17T05:46:28.896Z,20.85
2023-12-17T05:51:32.657Z,20.75
2023-12-17T05:56:42.301Z,20.58
2023-12-17T06:01:45.763Z,20.55
2023-12-17T06:06:49.357Z,19.02
2023-12-17T06:11:56.364Z,19.52
2023-12-17T06:16:59.998Z,18.40
2023-12-17T06:22:04.131Z,18.98
2023-12-17T06:27:15.238Z,20.00
2023-12-17T06:32:18.733Z,20.92
2023-12-17T06:37:22.348Z,23.02
2023-12-17T06:42:27.427Z,22.80
2023-12-17T06:47:31.325Z,21.88
2023-12-17T06:52:34.873Z,21.70
2023-12-17T06:57:40.027Z,18.83
2023-12-17T07:02:44.037Z,20.88
2023-12-17T07:07:49.483Z,20.48
2023-12-17T07:12:54.378Z,21.27
2023-12-17T07:17:57.957Z,21.80
2023-12-17T07:23:01.543Z,23.05
2023-12-17T07:28:06.400Z,22.60
2023-12-17T07:33:10.022Z,23.85
2023-12-17T07:38:13.786Z,23.63
2023-12-17T07:43:18.637Z,23.23
2023-12-17T07:48:22.219Z,27.70
2023-12-17T07:53:25.765Z,30.13
2023-12-17T07:58:32.982Z,30.77
2023-12-17T08:03:36.690Z,31.02
2023-12-17T08:08:40.319Z,27.50
2023-12-17T08:13:45.821Z,26.17
2023-12-17T08:18:49.426Z,27.15
2023-12-17T08:23:53.038Z,24.88
2023-12-17T08:28:57.965Z,25.33
2023-12-17T08:34:01.682Z,24.80
2023-12-17T08:39:06.488Z,24.48
2023-12-17T08:44:11.484Z,23.25
2023-12-17T08:49:16.927Z,22.90
2023-12-17T08:54:20.835Z,21.80
2023-12-17T08:59:25.791Z,22.33
2023-12-17T09:04:29.467Z,21.00
2023-12-17T09:09:33.084Z,20.05
2023-12-17T09:14:38.173Z,19.23
2023-12-17T09:19:41.789Z,19.70
2023-12-17T09:24:47.177Z,19.08
2023-12-17T09:29:53.625Z,17.20
2023-12-17T09:34:57.465Z,16.13
2023-12-17T09:40:01.332Z,15.98
2023-12-17T09:45:08.591Z,15.98
2023-12-17T09:50:12.992Z,16.60
2023-12-17T09:55:17.863Z,17.15
2023-12-17T10:00:23.114Z,16.85
2023-12-17T10:05:27.082Z,17.15
2023-12-17T10:10:31.700Z,16.98
2023-12-17T10:15:39.641Z,14.07
2023-12-17T10:20:43.182Z,13.30
2023-12-17T10:25:46.832Z,13.55
2023-12-17T10:30:51.839Z,14.68
2023-12-17T10:35:56.219Z,13.32
2023-12-17T10:41:00.851Z,13.27
2023-12-17T10:46:06.302Z,12.35
2023-12-17T10:51:11.840Z,12.75
2023-12-17T10:56:16.771Z,12.60
2023-12-17T11:01:22.017Z,13.50
2023-12-17T11:06:25.670Z,14.98
2023-12-17T11:11:32.313Z,16.45
2023-12-17T11:16:37.272Z,16.10
2023-12-17T11:21:42.866Z,16.02
2023-12-17T11:26:46.537Z,17.17
2023-12-17T11:31:51.624Z,18.33
2023-12-17T11:36:56.113Z,18.85
2023-12-17T11:42:00.193Z,19.27
2023-12-17T11:47:05.683Z,19.30
2023-12-17T11:52:14.940Z,19.33
2023-12-17T11:57:22.602Z,22.23
2023-12-17T12:02:29.214Z,22.20
2023-12-17T12:07:33.878Z,22.55
2023-12-17T12:12:37.738Z,20.73
2023-12-17T12:17:44.883Z,21.35
2023-12-17T12:22:50.527Z,20.88
2023-12-17T12:27:54.843Z,21.70
2023-12-17T12:33:10.190Z,23.23
2023-12-17T12:38:24.437Z,23.88
2023-12-17T12:43:28.272Z,21.05
2023-12-17T12:48:33.827Z,21.40
2023-12-17T12:53:37.672Z,20.67
2023-12-17T12:58:41.818Z,20.55
2023-12-17T13:03:46.753Z,19.77
2023-12-17T13:08:50.315Z,19.60
2023-12-17T13:13:53.852Z,18.35
2023-12-17T13:19:04.944Z,15.85
2023-12-17T13:24:11.963Z,14.57
2023-12-17T13:29:15.457Z,14.13
2023-12-17T13:34:22.176Z,12.70
2023-12-17T13:39:25.955Z,13.10
2023-12-17T13:44:29.681Z,13.80
2023-12-17T13:49:37.972Z,13.30
2023-12-17T13:54:42.154Z,11.57
2023-12-17T13:59:45.965Z,11.98
2023-12-17T14:04:50.876Z,11.55
2023-12-17T14:09:54.415Z,11.65
2023-12-17T14:14:58.148Z,11.38
2023-12-17T14:20:06.390Z,10.63
2023-12-17T14:25:14.749Z,10.02
2023-12-17T14:30:18.371Z,8.95
2023-12-17T14:35:23.974Z,8.80
2023-12-17T14:40:27.901Z,8.40
2023-12-17T14:45:33.598Z,8.57
2023-12-17T14:50:38.737Z,9.43
2023-12-17T14:55:42.343Z,9.40
2023-12-17T15:00:46.055Z,8.43
2023-12-17T15:05:51.085Z,9.70
2023-12-17T15:10:54.605Z,8.43
2023-12-17T15:15:58.197Z,8.82
2023-12-17T15:21:03.307Z,8.80
2023-12-17T15:26:06.919Z,8.98
2023-12-17T15:31:14.799Z,8.90
2023-12-17T15:36:21.458Z,8.65
2023-12-17T15:41:25.946Z,8.45
2023-12-17T15:46:30.268Z,7.68
2023-12-17T15:51:35.271Z,8.00
2023-12-17T15:56:38.765Z,8.43
2023-12-17T16:01:42.267Z,7.97
2023-12-17T16:06:47.548Z,7.68
2023-12-17T16:11:51.164Z,8.65
2023-12-17T16:16:54.729Z,8.93
2023-12-17T16:21:59.669Z,8.13
2023-12-17T16:27:04.699Z,9.10
2023-12-17T16:32:08.897Z,8.88
2023-12-17T16:37:14.047Z,8.75
2023-12-17T16:42:17.699Z,8.73
2023-12-17T16:47:21.866Z,7.90
2023-12-17T16:52:28.003Z,8.27
2023-12-17T16:57:31.643Z,8.10
2023-12-17T17:02:35.227Z,8.60
2023-12-17T17:07:40.156Z,17.63
2023-12-17T17:12:43.673Z,8.70
2023-12-17T17:17:47.209Z,9.13
2023-12-17T17:22:52.116Z,9.05
2023-12-17T17:27:56.432Z,8.43
2023-12-17T17:33:00.355Z,9.05
2023-12-17T17:38:05.745Z,9.48
2023-12-17T17:43:09.233Z,11.00
2023-12-17T17:48:12.917Z,10.85
2023-12-17T17:53:17.857Z,9.90
2023-12-17T17:58:21.392Z,9.82
2023-12-17T18:03:26.732Z,11.23
2023-12-17T18:08:31.687Z,12.18
2023-12-17T18:13:35.902Z,9.75
2023-12-17T18:18:39.491Z,23.73
2023-12-17T18:23:44.419Z,11.73
2023-12-17T18:28:47.994Z,10.13
2023-12-17T18:33:51.611Z,9.05
2023-12-17T18:38:56.561Z,9.70
2023-12-17T18:44:00.193Z,10.35
2023-12-17T18:49:03.869Z,9.07
2023-12-17T18:54:09.033Z,8.82
2023-12-17T18:59:12.643Z,10.18
2023-12-17T19:04:16.260Z,10.23
2023-12-17T19:09:21.664Z,9.52
2023-12-17T19:14:25.310Z,9.60
2023-12-17T19:19:29.032Z,10.43
2023-12-17T19:24:34.931Z,11.38
2023-12-17T19:29:39.529Z,9.45
2023-12-17T19:34:43.154Z,9.35
2023-12-17T19:39:49.167Z,9.55
2023-12-17T19:44:52.851Z,9.43
2023-12-17T19:49:56.836Z,9.82
2023-12-17T19:55:01.998Z,9.60
2023-12-17T20:00:07.274Z,9.05
2023-12-17T20:05:11.269Z,9.60
2023-12-17T20:10:16.338Z,8.85
2023-12-17T20:15:20.152Z,9.57
2023-12-17T20:20:23.652Z,9.13
2023-12-17T20:25:28.595Z,9.88
2023-12-17T20:30:33.463Z,9.60
2023-12-17T20:35:41.759Z,10.77
2023-12-17T20:40:49.882Z,10.50
2023-12-17T20:45:53.924Z,8.48
2023-12-17T20:50:57.579Z,9.68
2023-12-17T20:56:02.702Z,8.85
2023-12-17T21:01:06.206Z,9.73
2023-12-17T21:06:09.795Z,10.57
2023-12-17T21:11:14.684Z,8.82
2023-12-17T21:16:18.242Z,9.05
2023-12-17T21:21:21.732Z,10.15
2023-12-17T21:26:26.663Z,9.98
2023-12-17T21:31:30.226Z,9.48
2023-12-17T21:36:33.888Z,10.10
2023-12-17T21:41:38.858Z,9.57
2023-12-17T21:46:42.388Z,10.88
2023-12-17T21:51:45.932Z,9.80
2023-12-17T21:57:16.478Z,10.48
2023-12-17T22:02:14.381Z,12.07
2023-12-17T22:07:17.915Z,11.50
2023-12-17T22:12:22.761Z,13.40
2023-12-17T22:17:26.473Z,13.50
2023-12-17T22:22:30.449Z,13.07
2023-12-17T22:27:35.344Z,15.02
2023-12-17T22:32:39.330Z,14.93
2023-12-17T22:37:43.100Z,16.77
2023-12-17T22:42:48.124Z,19.25
2023-12-17T22:47:51.775Z,17.65
2023-12-17T22:52:55.385Z,18.00
2023-12-17T22:58:00.293Z,17.27
2023-12-17T23:03:04.006Z,18.88
2023-12-17T23:08:07.584Z,18.70
2023-12-17T23:13:12.461Z,18.52
2023-12-17T23:18:16.224Z,17.90
2023-12-17T23:23:19.900Z,17.13
2023-12-17T23:28:24.800Z,16.63
2023-12-17T23:33:28.412Z,16.63
2023-12-17T23:38:31.999Z,15.40
2023-12-17T23:43:36.924Z,15.95
2023-12-17T23:48:40.498Z,14.52
2023-12-17T23:53:44.000Z,15.70
2023-12-17T23:58:48.917Z,15.52
